sensor_id;sensor_type;location;lat;lon;timestamp;P1;durP1;ratioP1;P2;durP2;ratioP2
37355;SDS011;48747;50.250;18.848;2023-05-14T00:02:01;17.17;;;10.10;;
37355;SDS011;48747;50.250;18.848;2023-05-14T00:04:04;17.12;;;10.78;;
37355;SDS011;48747;50.250;18.848;2023-05-14T00:06:07;18.95;;;11.15;;
37355;SDS011;48747;50.250;18.848;2023-05-14T00:08:11;15.48;;;10.80;;
37355;SDS011;48747;50.250;18.848;2023-05-14T00:10:14;17.17;;;10.48;;
37355;SDS011;48747;50.250;18.848;2023-05-14T00:12:19;16.57;;;10.15;;
37355;SDS011;48747;50.250;18.848;2023-05-14T00:14:22;17.32;;;10.43;;
37355;SDS011;48747;50.250;18.848;2023-05-14T00:16:25;20.35;;;10.20;;
37355;SDS011;48747;50.250;18.848;2023-05-14T00:18:28;18.87;;;11.05;;
37355;SDS011;48747;50.250;18.848;2023-05-14T00:20:31;18.25;;;10.58;;
37355;SDS011;48747;50.250;18.848;2023-05-14T00:22:34;20.97;;;11.20;;
37355;SDS011;48747;50.250;18.848;2023-05-14T00:24:37;16.67;;;11.20;;
37355;SDS011;48747;50.250;18.848;2023-05-14T00:26:41;19.23;;;10.08;;
37355;SDS011;48747;50.250;18.848;2023-05-14T00:28:44;22.22;;;11.25;;
37355;SDS011;48747;50.250;18.848;2023-05-14T00:30:47;16.12;;;10.72;;
37355;SDS011;48747;50.250;18.848;2023-05-14T00:32:50;17.98;;;10.30;;
37355;SDS011;48747;50.250;18.848;2023-05-14T00:34:53;17.57;;;10.00;;
37355;SDS011;48747;50.250;18.848;2023-05-14T00:36:56;19.17;;;11.40;;
37355;SDS011;48747;50.250;18.848;2023-05-14T00:38:59;20.60;;;11.00;;
37355;SDS011;48747;50.250;18.848;2023-05-14T00:41:02;17.87;;;11.05;;
37355;SDS011;48747;50.250;18.848;2023-05-14T00:43:06;18.73;;;11.43;;
37355;SDS011;48747;50.250;18.848;2023-05-14T00:45:09;17.65;;;10.15;;
37355;SDS011;48747;50.250;18.848;2023-05-14T00:47:12;17.20;;;9.98;;
37355;SDS011;48747;50.250;18.848;2023-05-14T00:49:15;18.67;;;10.70;;
37355;SDS011;48747;50.250;18.848;2023-05-14T00:51:19;15.58;;;10.95;;
37355;SDS011;48747;50.250;18.848;2023-05-14T00:53:22;17.07;;;10.85;;
37355;SDS011;48747;50.250;18.848;2023-05-14T00:55:26;17.48;;;10.03;;
37355;SDS011;48747;50.250;18.848;2023-05-14T00:57:31;18.27;;;10.55;;
37355;SDS011;48747;50.250;18.848;2023-05-14T00:59:36;16.40;;;10.15;;
37355;SDS011;48747;50.250;18.848;2023-05-14T01:01:41;19.80;;;9.93;;
37355;SDS011;48747;50.250;18.848;2023-05-14T01:03:44;17.10;;;10.30;;
37355;SDS011;48747;50.250;18.848;2023-05-14T01:08:01;19.67;;;10.32;;
37355;SDS011;48747;50.250;18.848;2023-05-14T01:12:56;21.45;;;10.53;;
37355;SDS011;48747;50.250;18.848;2023-05-14T01:15:20;20.05;;;11.12;;
37355;SDS011;48747;50.250;18.848;2023-05-14T01:17:25;17.82;;;10.75;;
37355;SDS011;48747;50.250;18.848;2023-05-14T01:19:43;19.73;;;10.05;;
37355;SDS011;48747;50.250;18.848;2023-05-14T01:21:47;15.20;;;10.10;;
37355;SDS011;48747;50.250;18.848;2023-05-14T01:23:50;16.48;;;9.43;;
37355;SDS011;48747;50.250;18.848;2023-05-14T01:25:53;15.55;;;9.15;;
37355;SDS011;48747;50.250;18.848;2023-05-14T01:28:00;14.15;;;9.45;;
37355;SDS011;48747;50.250;18.848;2023-05-14T01:30:22;16.45;;;9.68;;
37355;SDS011;48747;50.250;18.848;2023-05-14T01:32:26;12.63;;;8.78;;
37355;SDS011;48747;50.250;18.848;2023-05-14T01:34:31;15.53;;;9.68;;
37355;SDS011;48747;50.250;18.848;2023-05-14T01:36:36;14.45;;;9.38;;
37355;SDS011;48747;50.250;18.848;2023-05-14T01:38:41;16.52;;;9.63;;
37355;SDS011;48747;50.250;18.848;2023-05-14T01:40:47;14.95;;;9.20;;
37355;SDS011;48747;50.250;18.848;2023-05-14T01:42:51;14.80;;;9.28;;
37355;SDS011;48747;50.250;18.848;2023-05-14T01:44:55;11.73;;;8.43;;
37355;SDS011;48747;50.250;18.848;2023-05-14T01:46:58;13.83;;;8.93;;
37355;SDS011;48747;50.250;18.848;2023-05-14T01:49:01;12.45;;;8.20;;
37355;SDS011;48747;50.250;18.848;2023-05-14T01:51:04;13.53;;;9.03;;
37355;SDS011;48747;50.250;18.848;2023-05-14T01:53:07;12.75;;;8.80;;
37355;SDS011;48747;50.250;18.848;2023-05-14T01:55:10;13.08;;;8.90;;
37355;SDS011;48747;50.250;18.848;2023-05-14T01:57:14;17.73;;;8.63;;
37355;SDS011;48747;50.250;18.848;2023-05-14T01:59:17;14.80;;;9.03;;
37355;SDS011;48747;50.250;18.848;2023-05-14T02:01:25;13.35;;;8.50;;
37355;SDS011;48747;50.250;18.848;2023-05-14T02:03:26;14.13;;;8.33;;
37355;SDS011;48747;50.250;18.848;2023-05-14T02:05:29;12.47;;;8.43;;
37355;SDS011;48747;50.250;18.848;2023-05-14T02:07:32;12.20;;;9.45;;
37355;SDS011;48747;50.250;18.848;2023-05-14T02:09:35;15.18;;;9.23;;
37355;SDS011;48747;50.250;18.848;2023-05-14T02:11:40;15.43;;;8.55;;
37355;SDS011;48747;50.250;18.848;2023-05-14T02:13:43;14.20;;;8.78;;
37355;SDS011;48747;50.250;18.848;2023-05-14T02:15:46;13.65;;;8.90;;
37355;SDS011;48747;50.250;18.848;2023-05-14T02:17:50;13.00;;;8.73;;
37355;SDS011;48747;50.250;18.848;2023-05-14T02:19:53;13.70;;;9.05;;
37355;SDS011;48747;50.250;18.848;2023-05-14T02:21:57;16.52;;;8.88;;
37355;SDS011;48747;50.250;18.848;2023-05-14T02:24:01;14.03;;;8.70;;
37355;SDS011;48747;50.250;18.848;2023-05-14T02:26:04;15.05;;;8.73;;
37355;SDS011;48747;50.250;18.848;2023-05-14T02:28:08;10.70;;;8.30;;
37355;SDS011;48747;50.250;18.848;2023-05-14T02:30:11;13.20;;;8.73;;
37355;SDS011;48747;50.250;18.848;2023-05-14T02:32:14;12.98;;;8.33;;
37355;SDS011;48747;50.250;18.848;2023-05-14T02:34:17;16.50;;;8.65;;
37355;SDS011;48747;50.250;18.848;2023-05-14T02:36:21;15.03;;;9.20;;
37355;SDS011;48747;50.250;18.848;2023-05-14T02:38:25;14.05;;;9.43;;
37355;SDS011;48747;50.250;18.848;2023-05-14T02:40:29;13.45;;;9.03;;
37355;SDS011;48747;50.250;18.848;2023-05-14T02:42:32;15.35;;;8.78;;
37355;SDS011;48747;50.250;18.848;2023-05-14T02:44:35;11.83;;;8.45;;
37355;SDS011;48747;50.250;18.848;2023-05-14T02:46:38;14.58;;;9.60;;
37355;SDS011;48747;50.250;18.848;2023-05-14T02:48:47;14.53;;;8.90;;
37355;SDS011;48747;50.250;18.848;2023-05-14T02:50:47;13.20;;;8.80;;
37355;SDS011;48747;50.250;18.848;2023-05-14T02:52:52;16.07;;;9.83;;
37355;SDS011;48747;50.250;18.848;2023-05-14T02:54:56;18.10;;;9.65;;
37355;SDS011;48747;50.250;18.848;2023-05-14T02:56:59;13.65;;;8.63;;
37355;SDS011;48747;50.250;18.848;2023-05-14T02:59:02;13.68;;;9.15;;
37355;SDS011;48747;50.250;18.848;2023-05-14T03:01:05;15.18;;;9.48;;
37355;SDS011;48747;50.250;18.848;2023-05-14T03:03:08;20.20;;;9.35;;
37355;SDS011;48747;50.250;18.848;2023-05-14T03:05:12;15.23;;;9.38;;
37355;SDS011;48747;50.250;18.848;2023-05-14T03:07:15;17.98;;;10.43;;
37355;SDS011;48747;50.250;18.848;2023-05-14T03:09:18;13.88;;;9.05;;
37355;SDS011;48747;50.250;18.848;2023-05-14T03:11:21;14.33;;;9.78;;
37355;SDS011;48747;50.250;18.848;2023-05-14T03:13:24;13.35;;;8.65;;
37355;SDS011;48747;50.250;18.848;2023-05-14T03:15:27;13.22;;;8.85;;
37355;SDS011;48747;50.250;18.848;2023-05-14T03:17:30;12.50;;;8.45;;
37355;SDS011;48747;50.250;18.848;2023-05-14T03:19:33;12.80;;;8.38;;
37355;SDS011;48747;50.250;18.848;2023-05-14T03:21:36;14.23;;;8.85;;
37355;SDS011;48747;50.250;18.848;2023-05-14T03:23:40;12.35;;;8.68;;
37355;SDS011;48747;50.250;18.848;2023-05-14T03:25:43;15.32;;;8.75;;
37355;SDS011;48747;50.250;18.848;2023-05-14T03:27:46;13.75;;;8.68;;
37355;SDS011;48747;50.250;18.848;2023-05-14T03:29:49;15.70;;;8.25;;
37355;SDS011;48747;50.250;18.848;2023-05-14T03:31:52;17.17;;;8.95;;
37355;SDS011;48747;50.250;18.848;2023-05-14T03:33:55;13.20;;;9.08;;
37355;SDS011;48747;50.250;18.848;2023-05-14T03:35:58;12.05;;;8.33;;
37355;SDS011;48747;50.250;18.848;2023-05-14T03:38:01;14.90;;;8.65;;
37355;SDS011;48747;50.250;18.848;2023-05-14T03:40:05;14.07;;;9.13;;
37355;SDS011;48747;50.250;18.848;2023-05-14T03:42:08;12.73;;;8.28;;
37355;SDS011;48747;50.250;18.848;2023-05-14T03:44:11;16.10;;;8.68;;
37355;SDS011;48747;50.250;18.848;2023-05-14T03:46:14;12.78;;;8.00;;
37355;SDS011;48747;50.250;18.848;2023-05-14T03:48:18;12.65;;;8.40;;
37355;SDS011;48747;50.250;18.848;2023-05-14T03:50:21;13.08;;;7.87;;
37355;SDS011;48747;50.250;18.848;2023-05-14T03:52:25;12.93;;;7.67;;
37355;SDS011;48747;50.250;18.848;2023-05-14T03:54:28;13.50;;;8.05;;
37355;SDS011;48747;50.250;18.848;2023-05-14T03:56:31;11.63;;;7.83;;
37355;SDS011;48747;50.250;18.848;2023-05-14T03:58:34;10.38;;;7.55;;
37355;SDS011;48747;50.250;18.848;2023-05-14T04:00:38;13.50;;;8.15;;
37355;SDS011;48747;50.250;18.848;2023-05-14T04:02:42;14.00;;;8.40;;
37355;SDS011;48747;50.250;18.848;2023-05-14T04:04:45;13.80;;;7.85;;
37355;SDS011;48747;50.250;18.848;2023-05-14T04:06:48;12.47;;;7.95;;
37355;SDS011;48747;50.250;18.848;2023-05-14T04:08:51;10.60;;;7.65;;
37355;SDS011;48747;50.250;18.848;2023-05-14T04:10:54;10.53;;;7.75;;
37355;SDS011;48747;50.250;18.848;2023-05-14T04:12:57;12.82;;;7.87;;
37355;SDS011;48747;50.250;18.848;2023-05-14T04:15:00;12.25;;;7.35;;
37355;SDS011;48747;50.250;18.848;2023-05-14T04:17:05;12.55;;;7.60;;
37355;SDS011;48747;50.250;18.848;2023-05-14T04:19:10;11.38;;;7.25;;
37355;SDS011;48747;50.250;18.848;2023-05-14T04:21:13;12.15;;;8.05;;
37355;SDS011;48747;50.250;18.848;2023-05-14T04:23:16;12.75;;;7.90;;
37355;SDS011;48747;50.250;18.848;2023-05-14T04:25:19;14.35;;;7.53;;
37355;SDS011;48747;50.250;18.848;2023-05-14T04:27:22;12.40;;;7.30;;
37355;SDS011;48747;50.250;18.848;2023-05-14T04:29:25;10.70;;;7.45;;
37355;SDS011;48747;50.250;18.848;2023-05-14T04:31:28;14.10;;;7.47;;
37355;SDS011;48747;50.250;18.848;2023-05-14T04:33:32;11.22;;;7.22;;
37355;SDS011;48747;50.250;18.848;2023-05-14T04:35:35;12.40;;;7.33;;
37355;SDS011;48747;50.250;18.848;2023-05-14T04:37:38;14.53;;;7.60;;
37355;SDS011;48747;50.250;18.848;2023-05-14T04:39:41;11.25;;;7.60;;
37355;SDS011;48747;50.250;18.848;2023-05-14T04:41:45;10.38;;;6.80;;
37355;SDS011;48747;50.250;18.848;2023-05-14T04:43:48;10.25;;;6.80;;
37355;SDS011;48747;50.250;18.848;2023-05-14T04:45:51;13.18;;;7.40;;
37355;SDS011;48747;50.250;18.848;2023-05-14T04:47:54;10.38;;;6.05;;
37355;SDS011;48747;50.250;18.848;2023-05-14T04:49:57;9.38;;;6.15;;
37355;SDS011;48747;50.250;18.848;2023-05-14T04:52:00;10.05;;;6.00;;
37355;SDS011;48747;50.250;18.848;2023-05-14T04:54:09;8.85;;;5.65;;
37355;SDS011;48747;50.250;18.848;2023-05-14T04:56:08;10.68;;;6.35;;
37355;SDS011;48747;50.250;18.848;2023-05-14T04:58:11;11.78;;;6.20;;
37355;SDS011;48747;50.250;18.848;2023-05-14T05:00:15;9.10;;;6.03;;
37355;SDS011;48747;50.250;18.848;2023-05-14T05:02:19;10.08;;;5.65;;
37355;SDS011;48747;50.250;18.848;2023-05-14T05:04:23;7.65;;;5.37;;
37355;SDS011;48747;50.250;18.848;2023-05-14T05:06:27;11.78;;;5.85;;
37355;SDS011;48747;50.250;18.848;2023-05-14T05:08:30;11.50;;;5.75;;
37355;SDS011;48747;50.250;18.848;2023-05-14T05:10:33;8.28;;;5.90;;
37355;SDS011;48747;50.250;18.848;2023-05-14T05:12:37;8.38;;;5.90;;
37355;SDS011;48747;50.250;18.848;2023-05-14T05:14:40;8.93;;;5.58;;
37355;SDS011;48747;50.250;18.848;2023-05-14T05:16:43;7.58;;;5.50;;
37355;SDS011;48747;50.250;18.848;2023-05-14T05:18:46;10.08;;;6.90;;
37355;SDS011;48747;50.250;18.848;2023-05-14T05:20:49;9.73;;;6.20;;
37355;SDS011;48747;50.250;18.848;2023-05-14T05:22:52;10.95;;;5.67;;
37355;SDS011;48747;50.250;18.848;2023-05-14T05:24:55;9.18;;;5.80;;
37355;SDS011;48747;50.250;18.848;2023-05-14T05:27:00;8.13;;;5.47;;
37355;SDS011;48747;50.250;18.848;2023-05-14T05:29:03;9.53;;;5.47;;
37355;SDS011;48747;50.250;18.848;2023-05-14T05:31:06;10.15;;;5.62;;
37355;SDS011;48747;50.250;18.848;2023-05-14T05:33:11;10.50;;;6.22;;
37355;SDS011;48747;50.250;18.848;2023-05-14T05:35:14;10.95;;;5.87;;
37355;SDS011;48747;50.250;18.848;2023-05-14T05:37:23;12.35;;;5.70;;
37355;SDS011;48747;50.250;18.848;2023-05-14T05:39:22;9.25;;;5.25;;
37355;SDS011;48747;50.250;18.848;2023-05-14T05:41:25;8.93;;;5.62;;
37355;SDS011;48747;50.250;18.848;2023-05-14T05:43:30;8.53;;;5.25;;
37355;SDS011;48747;50.250;18.848;2023-05-14T05:45:34;11.03;;;5.28;;
37355;SDS011;48747;50.250;18.848;2023-05-14T05:47:37;8.08;;;5.25;;
37355;SDS011;48747;50.250;18.848;2023-05-14T05:49:40;10.58;;;5.05;;
37355;SDS011;48747;50.250;18.848;2023-05-14T05:51:43;8.58;;;5.25;;
37355;SDS011;48747;50.250;18.848;2023-05-14T05:53:46;8.53;;;5.00;;
37355;SDS011;48747;50.250;18.848;2023-05-14T05:55:49;10.10;;;5.20;;
37355;SDS011;48747;50.250;18.848;2023-05-14T05:57:52;8.15;;;4.75;;
37355;SDS011;48747;50.250;18.848;2023-05-14T05:59:56;10.05;;;4.97;;
37355;SDS011;48747;50.250;18.848;2023-05-14T06:01:59;9.48;;;5.53;;
37355;SDS011;48747;50.250;18.848;2023-05-14T06:04:02;8.93;;;4.90;;
37355;SDS011;48747;50.250;18.848;2023-05-14T06:06:06;6.58;;;4.47;;
37355;SDS011;48747;50.250;18.848;2023-05-14T06:08:09;7.25;;;4.97;;
37355;SDS011;48747;50.250;18.848;2023-05-14T06:10:12;6.92;;;4.67;;
37355;SDS011;48747;50.250;18.848;2023-05-14T06:12:16;7.35;;;4.90;;
37355;SDS011;48747;50.250;18.848;2023-05-14T06:14:19;6.95;;;4.92;;
37355;SDS011;48747;50.250;18.848;2023-05-14T06:16:22;9.63;;;4.92;;
37355;SDS011;48747;50.250;18.848;2023-05-14T06:18:25;7.50;;;4.95;;
37355;SDS011;48747;50.250;18.848;2023-05-14T06:20:28;6.28;;;4.78;;
37355;SDS011;48747;50.250;18.848;2023-05-14T06:22:31;8.48;;;5.25;;
37355;SDS011;48747;50.250;18.848;2023-05-14T06:24:36;7.37;;;4.87;;
37355;SDS011;48747;50.250;18.848;2023-05-14T06:26:39;7.00;;;4.78;;
37355;SDS011;48747;50.250;18.848;2023-05-14T06:28:43;6.80;;;4.40;;
37355;SDS011;48747;50.250;18.848;2023-05-14T06:30:48;8.20;;;5.45;;
37355;SDS011;48747;50.250;18.848;2023-05-14T06:32:52;8.30;;;4.80;;
37355;SDS011;48747;50.250;18.848;2023-05-14T06:34:56;9.85;;;4.95;;
37355;SDS011;48747;50.250;18.848;2023-05-14T06:36:59;9.18;;;4.97;;
37355;SDS011;48747;50.250;18.848;2023-05-14T06:39:03;8.65;;;4.83;;
37355;SDS011;48747;50.250;18.848;2023-05-14T06:41:07;10.85;;;5.00;;
37355;SDS011;48747;50.250;18.848;2023-05-14T06:43:10;7.28;;;5.05;;
37355;SDS011;48747;50.250;18.848;2023-05-14T06:45:13;6.85;;;4.40;;
37355;SDS011;48747;50.250;18.848;2023-05-14T06:47:16;7.92;;;4.75;;
37355;SDS011;48747;50.250;18.848;2023-05-14T06:49:19;8.05;;;5.17;;
37355;SDS011;48747;50.250;18.848;2023-05-14T06:51:24;7.75;;;4.78;;
37355;SDS011;48747;50.250;18.848;2023-05-14T06:53:27;6.62;;;4.50;;
37355;SDS011;48747;50.250;18.848;2023-05-14T06:55:30;8.50;;;4.85;;
37355;SDS011;48747;50.250;18.848;2023-05-14T06:57:33;9.00;;;4.92;;
37355;SDS011;48747;50.250;18.848;2023-05-14T06:59:36;7.15;;;4.70;;
37355;SDS011;48747;50.250;18.848;2023-05-14T07:01:45;10.05;;;4.37;;
37355;SDS011;48747;50.250;18.848;2023-05-14T07:03:44;8.78;;;4.33;;
37355;SDS011;48747;50.250;18.848;2023-05-14T07:05:47;7.80;;;4.75;;
37355;SDS011;48747;50.250;18.848;2023-05-14T07:07:51;7.53;;;4.40;;
37355;SDS011;48747;50.250;18.848;2023-05-14T07:09:55;6.65;;;4.65;;
37355;SDS011;48747;50.250;18.848;2023-05-14T07:11:58;7.22;;;4.60;;
37355;SDS011;48747;50.250;18.848;2023-05-14T07:14:03;6.53;;;4.65;;
37355;SDS011;48747;50.250;18.848;2023-05-14T07:16:06;6.87;;;4.30;;
37355;SDS011;48747;50.250;18.848;2023-05-14T07:18:13;6.78;;;4.37;;
37355;SDS011;48747;50.250;18.848;2023-05-14T07:20:16;7.60;;;5.05;;
37355;SDS011;48747;50.250;18.848;2023-05-14T07:22:19;7.65;;;4.60;;
37355;SDS011;48747;50.250;18.848;2023-05-14T07:24:22;7.60;;;4.67;;
37355;SDS011;48747;50.250;18.848;2023-05-14T07:26:26;8.45;;;4.42;;
37355;SDS011;48747;50.250;18.848;2023-05-14T07:28:29;6.10;;;4.25;;
37355;SDS011;48747;50.250;18.848;2023-05-14T07:30:32;5.40;;;4.28;;
37355;SDS011;48747;50.250;18.848;2023-05-14T07:32:35;6.53;;;4.33;;
37355;SDS011;48747;50.250;18.848;2023-05-14T07:34:38;6.58;;;4.15;;
37355;SDS011;48747;50.250;18.848;2023-05-14T07:36:41;6.55;;;3.98;;
37355;SDS011;48747;50.250;18.848;2023-05-14T07:38:44;8.08;;;4.00;;
37355;SDS011;48747;50.250;18.848;2023-05-14T07:40:47;7.47;;;3.98;;
37355;SDS011;48747;50.250;18.848;2023-05-14T07:42:50;6.90;;;3.95;;
37355;SDS011;48747;50.250;18.848;2023-05-14T07:44:53;5.83;;;3.80;;
37355;SDS011;48747;50.250;18.848;2023-05-14T07:46:58;5.97;;;4.37;;
37355;SDS011;48747;50.250;18.848;2023-05-14T07:49:03;4.92;;;4.15;;
37355;SDS011;48747;50.250;18.848;2023-05-14T07:51:06;6.37;;;4.47;;
37355;SDS011;48747;50.250;18.848;2023-05-14T07:53:09;5.70;;;4.17;;
37355;SDS011;48747;50.250;18.848;2023-05-14T07:55:12;6.78;;;4.40;;
37355;SDS011;48747;50.250;18.848;2023-05-14T07:57:15;7.75;;;4.15;;
37355;SDS011;48747;50.250;18.848;2023-05-14T07:59:19;6.12;;;4.30;;
37355;SDS011;48747;50.250;18.848;2023-05-14T08:01:22;7.00;;;4.15;;
37355;SDS011;48747;50.250;18.848;2023-05-14T08:03:27;5.10;;;4.12;;
37355;SDS011;48747;50.250;18.848;2023-05-14T08:05:30;4.70;;;3.58;;
37355;SDS011;48747;50.250;18.848;2023-05-14T08:07:34;7.47;;;4.37;;
37355;SDS011;48747;50.250;18.848;2023-05-14T08:09:37;8.15;;;4.10;;
37355;SDS011;48747;50.250;18.848;2023-05-14T08:11:41;6.65;;;3.85;;
37355;SDS011;48747;50.250;18.848;2023-05-14T08:13:44;5.55;;;3.85;;
37355;SDS011;48747;50.250;18.848;2023-05-14T08:15:47;4.95;;;3.70;;
37355;SDS011;48747;50.250;18.848;2023-05-14T08:17:50;5.22;;;3.80;;
37355;SDS011;48747;50.250;18.848;2023-05-14T08:19:53;6.75;;;4.95;;
37355;SDS011;48747;50.250;18.848;2023-05-14T08:21:56;6.97;;;5.25;;
37355;SDS011;48747;50.250;18.848;2023-05-14T08:23:59;5.17;;;4.67;;
37355;SDS011;48747;50.250;18.848;2023-05-14T08:26:02;5.33;;;4.42;;
37355;SDS011;48747;50.250;18.848;2023-05-14T08:28:06;8.45;;;5.00;;
37355;SDS011;48747;50.250;18.848;2023-05-14T08:30:09;8.65;;;4.45;;
37355;SDS011;48747;50.250;18.848;2023-05-14T08:32:12;6.95;;;4.50;;
37355;SDS011;48747;50.250;18.848;2023-05-14T08:34:15;7.12;;;4.85;;
37355;SDS011;48747;50.250;18.848;2023-05-14T08:36:20;15.38;;;6.97;;
37355;SDS011;48747;50.250;18.848;2023-05-14T08:38:23;28.95;;;13.20;;
37355;SDS011;48747;50.250;18.848;2023-05-14T08:40:26;13.90;;;6.92;;
37355;SDS011;48747;50.250;18.848;2023-05-14T08:42:30;7.25;;;5.35;;
37355;SDS011;48747;50.250;18.848;2023-05-14T08:44:35;5.40;;;4.50;;
37355;SDS011;48747;50.250;18.848;2023-05-14T08:46:40;5.72;;;4.35;;
37355;SDS011;48747;50.250;18.848;2023-05-14T08:48:43;9.18;;;4.62;;
37355;SDS011;48747;50.250;18.848;2023-05-14T08:50:50;9.25;;;5.05;;
37355;SDS011;48747;50.250;18.848;2023-05-14T08:52:54;5.75;;;5.17;;
37355;SDS011;48747;50.250;18.848;2023-05-14T08:55:04;6.95;;;4.80;;
37355;SDS011;48747;50.250;18.848;2023-05-14T08:57:08;6.37;;;5.20;;
37355;SDS011;48747;50.250;18.848;2023-05-14T08:59:12;6.80;;;5.17;;
37355;SDS011;48747;50.250;18.848;2023-05-14T09:01:15;7.53;;;4.35;;
37355;SDS011;48747;50.250;18.848;2023-05-14T09:03:20;6.58;;;4.80;;
37355;SDS011;48747;50.250;18.848;2023-05-14T09:05:23;9.10;;;4.92;;
37355;SDS011;48747;50.250;18.848;2023-05-14T09:07:27;6.45;;;4.03;;
37355;SDS011;48747;50.250;18.848;2023-05-14T09:09:30;5.90;;;4.37;;
37355;SDS011;48747;50.250;18.848;2023-05-14T09:11:33;6.40;;;4.20;;
37355;SDS011;48747;50.250;18.848;2023-05-14T09:13:38;5.75;;;4.80;;
37355;SDS011;48747;50.250;18.848;2023-05-14T09:15:41;7.00;;;4.45;;
37355;SDS011;48747;50.250;18.848;2023-05-14T09:17:44;7.42;;;4.45;;
37355;SDS011;48747;50.250;18.848;2023-05-14T09:19:51;6.20;;;4.70;;
37355;SDS011;48747;50.250;18.848;2023-05-14T09:21:55;5.33;;;4.60;;
37355;SDS011;48747;50.250;18.848;2023-05-14T09:23:59;5.72;;;4.75;;
37355;SDS011;48747;50.250;18.848;2023-05-14T09:26:03;5.85;;;4.75;;
37355;SDS011;48747;50.250;18.848;2023-05-14T09:28:07;6.10;;;4.78;;
37355;SDS011;48747;50.250;18.848;2023-05-14T09:30:11;5.87;;;5.28;;
37355;SDS011;48747;50.250;18.848;2023-05-14T09:32:15;5.37;;;4.80;;
37355;SDS011;48747;50.250;18.848;2023-05-14T09:34:28;6.12;;;4.67;;
37355;SDS011;48747;50.250;18.848;2023-05-14T09:36:33;8.28;;;5.30;;
37355;SDS011;48747;50.250;18.848;2023-05-14T09:38:36;5.95;;;4.67;;
37355;SDS011;48747;50.250;18.848;2023-05-14T09:40:39;6.25;;;4.42;;
37355;SDS011;48747;50.250;18.848;2023-05-14T09:42:43;9.55;;;8.75;;
37355;SDS011;48747;50.250;18.848;2023-05-14T09:44:46;11.25;;;10.20;;
37355;SDS011;48747;50.250;18.848;2023-05-14T09:46:49;7.62;;;7.03;;
37355;SDS011;48747;50.250;18.848;2023-05-14T09:48:54;9.70;;;9.00;;
37355;SDS011;48747;50.250;18.848;2023-05-14T09:50:57;12.58;;;11.57;;
37355;SDS011;48747;50.250;18.848;2023-05-14T09:53:00;12.45;;;11.55;;
37355;SDS011;48747;50.250;18.848;2023-05-14T09:55:04;12.65;;;11.75;;
37355;SDS011;48747;50.250;18.848;2023-05-14T09:57:08;9.85;;;9.05;;
37355;SDS011;48747;50.250;18.848;2023-05-14T09:59:11;6.35;;;5.25;;
37355;SDS011;48747;50.250;18.848;2023-05-14T10:01:15;5.87;;;5.05;;
37355;SDS011;48747;50.250;18.848;2023-05-14T10:03:20;15.45;;;14.33;;
37355;SDS011;48747;50.250;18.848;2023-05-14T10:05:27;85.53;;;80.92;;
37355;SDS011;48747;50.250;18.848;2023-05-14T10:07:34;95.32;;;90.12;;
37355;SDS011;48747;50.250;18.848;2023-05-14T10:09:42;104.97;;;99.20;;
37355;SDS011;48747;50.250;18.848;2023-05-14T10:11:45;107.03;;;101.25;;
37355;SDS011;48747;50.250;18.848;2023-05-14T10:14:04;76.02;;;71.85;;
37355;SDS011;48747;50.250;18.848;2023-05-14T10:16:10;61.77;;;57.95;;
37355;SDS011;48747;50.250;18.848;2023-05-14T10:18:20;83.27;;;78.45;;
37355;SDS011;48747;50.250;18.848;2023-05-14T10:20:25;87.45;;;82.35;;
37355;SDS011;48747;50.250;18.848;2023-05-14T10:22:30;66.30;;;62.27;;
37355;SDS011;48747;50.250;18.848;2023-05-14T10:24:35;76.95;;;72.60;;
37355;SDS011;48747;50.250;18.848;2023-05-14T10:26:39;67.10;;;63.28;;
37355;SDS011;48747;50.250;18.848;2023-05-14T10:28:42;34.90;;;32.88;;
37355;SDS011;48747;50.250;18.848;2023-05-14T10:30:46;31.97;;;30.08;;
37355;SDS011;48747;50.250;18.848;2023-05-14T10:33:06;30.37;;;28.57;;
37355;SDS011;48747;50.250;18.848;2023-05-14T10:35:21;34.23;;;32.08;;
37355;SDS011;48747;50.250;18.848;2023-05-14T10:39:44;21.73;;;19.90;;
37355;SDS011;48747;50.250;18.848;2023-05-14T10:41:44;27.22;;;25.32;;
37355;SDS011;48747;50.250;18.848;2023-05-14T10:43:48;51.45;;;48.58;;
37355;SDS011;48747;50.250;18.848;2023-05-14T10:45:52;55.17;;;52.23;;
37355;SDS011;48747;50.250;18.848;2023-05-14T10:47:55;50.98;;;48.30;;
37355;SDS011;48747;50.250;18.848;2023-05-14T10:49:59;28.75;;;26.93;;
37355;SDS011;48747;50.250;18.848;2023-05-14T10:52:07;13.98;;;12.98;;
37355;SDS011;48747;50.250;18.848;2023-05-14T10:54:10;10.68;;;9.70;;
37355;SDS011;48747;50.250;18.848;2023-05-14T10:56:14;10.08;;;9.38;;
37355;SDS011;48747;50.250;18.848;2023-05-14T10:58:17;4.53;;;4.00;;
37355;SDS011;48747;50.250;18.848;2023-05-14T11:00:20;8.23;;;5.42;;
37355;SDS011;48747;50.250;18.848;2023-05-14T11:02:27;5.08;;;4.58;;
37355;SDS011;48747;50.250;18.848;2023-05-14T11:04:32;6.17;;;4.42;;
37355;SDS011;48747;50.250;18.848;2023-05-14T11:06:35;5.33;;;3.85;;
37355;SDS011;48747;50.250;18.848;2023-05-14T11:08:42;5.55;;;4.35;;
37355;SDS011;48747;50.250;18.848;2023-05-14T11:10:46;8.43;;;4.08;;
37355;SDS011;48747;50.250;18.848;2023-05-14T11:12:51;7.35;;;5.05;;
37355;SDS011;48747;50.250;18.848;2023-05-14T11:14:57;8.95;;;7.05;;
37355;SDS011;48747;50.250;18.848;2023-05-14T11:17:02;7.72;;;7.12;;
37355;SDS011;48747;50.250;18.848;2023-05-14T11:19:06;13.50;;;12.43;;
37355;SDS011;48747;50.250;18.848;2023-05-14T11:21:09;14.28;;;13.48;;
37355;SDS011;48747;50.250;18.848;2023-05-14T11:23:13;12.33;;;11.45;;
37355;SDS011;48747;50.250;18.848;2023-05-14T11:25:18;12.40;;;11.50;;
37355;SDS011;48747;50.250;18.848;2023-05-14T11:27:22;13.88;;;12.25;;
37355;SDS011;48747;50.250;18.848;2023-05-14T11:29:25;12.40;;;11.30;;
37355;SDS011;48747;50.250;18.848;2023-05-14T11:31:28;11.88;;;10.98;;
37355;SDS011;48747;50.250;18.848;2023-05-14T11:33:31;9.93;;;9.33;;
37355;SDS011;48747;50.250;18.848;2023-05-14T11:35:36;13.40;;;12.35;;
37355;SDS011;48747;50.250;18.848;2023-05-14T11:37:40;12.18;;;11.10;;
37355;SDS011;48747;50.250;18.848;2023-05-14T11:39:47;14.13;;;13.13;;
37355;SDS011;48747;50.250;18.848;2023-05-14T11:41:52;10.45;;;9.55;;
37355;SDS011;48747;50.250;18.848;2023-05-14T11:43:56;9.15;;;8.33;;
37355;SDS011;48747;50.250;18.848;2023-05-14T11:46:01;8.75;;;8.08;;
37355;SDS011;48747;50.250;18.848;2023-05-14T11:48:10;10.15;;;9.50;;
37355;SDS011;48747;50.250;18.848;2023-05-14T11:50:15;9.35;;;8.65;;
37355;SDS011;48747;50.250;18.848;2023-05-14T11:52:18;7.67;;;6.97;;
37355;SDS011;48747;50.250;18.848;2023-05-14T11:54:23;7.72;;;7.20;;
37355;SDS011;48747;50.250;18.848;2023-05-14T11:56:29;7.62;;;6.87;;
37355;SDS011;48747;50.250;18.848;2023-05-14T11:58:32;7.62;;;7.03;;
37355;SDS011;48747;50.250;18.848;2023-05-14T12:00:36;8.65;;;7.12;;
37355;SDS011;48747;50.250;18.848;2023-05-14T12:02:40;8.83;;;7.92;;
37355;SDS011;48747;50.250;18.848;2023-05-14T12:04:45;10.13;;;9.43;;
37355;SDS011;48747;50.250;18.848;2023-05-14T12:06:50;7.72;;;7.10;;
37355;SDS011;48747;50.250;18.848;2023-05-14T12:08:54;6.58;;;6.03;;
37355;SDS011;48747;50.250;18.848;2023-05-14T12:10:58;7.45;;;6.30;;
37355;SDS011;48747;50.250;18.848;2023-05-14T12:13:05;6.78;;;6.28;;
37355;SDS011;48747;50.250;18.848;2023-05-14T12:15:11;7.25;;;6.72;;